Time;durP1;ratioP1;P1;durP2;ratioP2;P2;SDS_P1;SDS_P2;PMS_P1;PMS_P2;Temp;Humidity;BMP_temperature;BMP_pressure;BME280_temperature;BME280_humidity;BME280_pressure;Samples;Min_cycle;Max_cycle;Signal;HPM_P1;HPM_P2
2023/07/30 00:00:38;;;;;;;2.20;2.00;;;18.00;99.90;;;17.77;79.24;100207.94;5039234;28;20291;-76
2023/07/30 00:03:10;;;;;;;2.90;1.87;;;17.90;99.90;;;17.77;79.15;100205.25;5040337;28;20195;-76
2023/07/30 00:05:43;;;;;;;4.07;2.43;;;17.90;99.90;;;17.71;79.63;100202.34;5039413;28;20226;-76
2023/07/30 00:08:16;;;;;;;4.43;2.23;;;17.80;99.90;;;17.72;79.82;100201.31;5039594;28;20187;-76
2023/07/30 00:10:48;;;;;;;3.50;2.10;;;17.90;99.90;;;17.72;79.47;100206.72;5039283;28;20614;-75
2023/07/30 00:13:19;;;;;;;2.13;1.93;;;17.90;99.90;;;17.71;80.12;100204.22;5039555;28;20223;-75
2023/07/30 00:15:51;;;;;;;3.13;1.83;;;17.90;99.90;;;17.68;79.67;100201.97;5039467;28;20230;-76
2023/07/30 00:18:23;;;;;;;5.77;2.03;;;17.90;99.90;;;17.62;79.44;100203.69;5039095;28;20211;-76
2023/07/30 00:20:55;;;;;;;3.57;2.20;;;17.80;99.90;;;17.67;79.96;100195.72;5036475;28;20202;-75
2023/07/30 00:23:28;;;;;;;4.10;1.93;;;17.90;99.90;;;17.66;79.41;100196.78;5036478;28;20274;-75
2023/07/30 00:26:00;;;;;;;3.60;2.03;;;17.90;99.90;;;17.62;80.18;100200.97;5036242;28;20314;-76
2023/07/30 00:28:32;;;;;;;4.87;2.07;;;17.80;99.90;;;17.63;80.61;100208.06;5036423;28;20265;-75
2023/07/30 00:31:04;;;;;;;4.20;2.10;;;17.80;99.90;;;17.59;80.89;100200.56;5037051;28;20249;-75
2023/07/30 00:33:36;;;;;;;3.17;2.20;;;17.80;99.90;;;17.59;80.41;100203.28;5036067;28;20245;-75
2023/07/30 00:36:07;;;;;;;4.60;2.20;;;17.80;99.90;;;17.54;80.31;100198.47;5035977;28;20288;-75
2023/07/30 00:38:41;;;;;;;3.93;2.00;;;17.70;99.90;;;17.53;79.98;100196.84;5035891;28;20250;-75
2023/07/30 00:41:13;;;;;;;3.40;2.13;;;17.70;99.90;;;17.40;80.68;100196.91;5035907;28;20282;-75
2023/07/30 00:43:46;;;;;;;2.17;2.00;;;17.60;99.90;;;17.38;81.62;100201.72;5035578;28;20246;-75
2023/07/30 00:46:18;;;;;;;2.90;2.17;;;17.60;99.90;;;17.44;81.28;100202.72;5035783;28;20226;-75
2023/07/30 00:48:50;;;;;;;2.07;1.87;;;17.70;99.90;;;17.46;81.68;100216.88;5035765;28;20195;-75
2023/07/30 00:51:22;;;;;;;3.10;2.23;;;17.70;99.90;;;17.47;80.88;100202.28;5035757;28;20246;-75
2023/07/30 00:53:55;;;;;;;3.73;1.90;;;17.70;99.90;;;17.43;81.10;100206.50;5035705;28;20187;-75
2023/07/30 00:56:27;;;;;;;3.87;2.10;;;17.60;99.90;;;17.41;80.71;100211.28;5035570;28;20317;-75
2023/07/30 00:58:59;;;;;;;3.77;1.90;;;17.60;99.90;;;17.42;81.31;100205.66;5035517;28;20219;-75
2023/07/30 01:01:34;;;;;;;6.60;2.67;;;17.60;99.90;;;17.34;80.92;100208.59;5035518;28;20281;-75
2023/07/30 01:04:07;;;;;;;2.60;2.23;;;17.50;99.90;;;17.32;81.21;100216.13;5035543;28;20201;-75
2023/07/30 01:06:39;;;;;;;2.93;2.33;;;17.60;99.90;;;17.31;81.88;100224.44;5035126;28;20231;-75
2023/07/30 01:09:13;;;;;;;4.20;2.30;;;17.50;99.90;;;17.28;81.92;100224.88;5035124;28;20633;-75
2023/07/30 01:11:46;;;;;;;2.60;2.37;;;17.50;99.90;;;17.23;81.89;100223.66;5035433;28;20190;-75
2023/07/30 01:14:19;;;;;;;3.90;1.90;;;17.40;99.90;;;17.23;82.16;100222.81;5035333;28;20277;-76
2023/07/30 01:16:51;;;;;;;2.60;2.00;;;17.50;99.90;;;17.17;82.78;100226.38;5035111;28;20629;-76
2023/07/30 01:19:23;;;;;;;3.17;2.33;;;17.40;99.90;;;17.12;83.23;100227.03;5035241;28;20306;-76
2023/07/30 01:21:57;;;;;;;3.13;2.47;;;17.40;99.90;;;17.10;83.89;100231.00;5035272;28;20195;-76
2023/07/30 01:24:29;;;;;;;4.37;2.67;;;17.40;99.90;;;17.04;85.01;100235.41;5035117;28;20230;-76
2023/07/30 01:27:06;;;;;;;3.17;2.57;;;17.30;99.90;;;17.00;85.30;100238.72;5035103;28;20191;-76
2023/07/30 01:29:46;;;;;;;4.07;2.50;;;17.30;99.90;;;17.02;85.29;100248.28;5034772;28;20309;-76
2023/07/30 01:32:20;;;;;;;3.20;2.70;;;17.30;99.90;;;17.02;86.28;100242.06;5034628;28;20210;-76
2023/07/30 01:34:57;;;;;;;5.70;3.57;;;17.40;99.90;;;16.99;86.35;100246.00;5034837;28;20226;-74
2023/07/30 01:37:33;;;;;;;3.60;3.00;;;17.40;99.90;;;16.99;85.98;100256.00;5034512;28;20258;-75
2023/07/30 01:40:08;;;;;;;4.57;3.03;;;17.30;99.90;;;17.02;87.19;100251.00;5034998;28;20617;-75
2023/07/30 01:42:40;;;;;;;7.07;3.40;;;17.40;99.90;;;17.07;85.82;100255.78;5034452;28;20253;-76
2023/07/30 01:45:13;;;;;;;4.67;3.00;;;17.40;99.90;;;17.11;84.99;100255.13;5034787;28;20253;-76
2023/07/30 01:47:44;;;;;;;3.63;2.87;;;17.40;99.90;;;17.14;85.34;100248.47;5034673;28;20222;-76
2023/07/30 01:50:16;;;;;;;7.70;3.17;;;17.50;99.90;;;17.16;85.11;100238.25;5034381;28;20630;-76
2023/07/30 01:52:49;;;;;;;5.23;2.90;;;17.50;99.90;;;17.17;85.51;100245.31;5034577;28;20294;-76
2023/07/30 01:55:21;;;;;;;3.30;3.00;;;17.50;99.90;;;17.10;86.75;100255.34;5034497;28;20317;-76
2023/07/30 01:57:53;;;;;;;4.10;2.87;;;17.40;99.90;;;17.08;86.45;100246.63;5034459;28;20225;-76
2023/07/30 02:00:25;;;;;;;3.80;3.13;;;17.40;99.90;;;17.04;87.18;100246.22;5034450;28;20277;-76
2023/07/30 02:02:57;;;;;;;5.37;3.23;;;17.40;99.90;;;17.04;86.58;100251.63;5034428;28;20232;-76
2023/07/30 02:05:29;;;;;;;4.13;3.20;;;17.40;99.90;;;16.98;86.96;100257.91;5034020;28;20223;-76
2023/07/30 02:08:03;;;;;;;3.50;3.20;;;17.30;99.90;;;16.94;87.50;100261.22;5034010;28;20744;-75
2023/07/30 02:10:35;;;;;;;3.70;3.30;;;17.30;99.90;;;16.90;88.32;100255.41;5034266;28;20215;-76
2023/07/30 02:13:07;;;;;;;5.03;3.57;;;17.20;99.90;;;16.91;87.61;100262.50;5034257;28;20219;-76
2023/07/30 02:15:41;;;;;;;4.40;3.37;;;17.20;99.90;;;16.85;88.47;100254.41;5034160;28;20241;-76
2023/07/30 02:18:12;;;;;;;3.73;3.37;;;17.20;99.90;;;16.84;88.53;100250.88;5033793;28;20680;-76
2023/07/30 02:20:44;;;;;;;3.90;3.50;;;17.20;99.90;;;16.87;87.83;100257.72;5034171;28;20261;-76
2023/07/30 02:23:18;;;;;;;4.93;3.93;;;17.20;99.90;;;16.87;88.03;100260.41;5034067;28;20218;-76
2023/07/30 02:25:50;;;;;;;6.57;4.07;;;17.20;99.90;;;16.86;88.22;100259.59;5033998;28;20231;-76
2023/07/30 02:28:22;;;;;;;5.03;3.90;;;17.20;99.90;;;16.82;88.83;100262.91;5034050;28;20214;-75
2023/07/30 02:30:54;;;;;;;5.27;4.10;;;17.20;99.90;;;16.81;88.58;100261.28;5033982;28;20195;-76
2023/07/30 02:33:26;;;;;;;4.70;3.77;;;17.20;99.90;;;16.73;89.12;100260.47;5033622;28;20238;-76
2023/07/30 02:35:58;;;;;;;4.23;3.93;;;17.10;99.90;;;16.73;88.92;100256.91;5034025;28;20313;-76
2023/07/30 02:38:31;;;;;;;5.83;3.93;;;17.10;99.90;;;16.70;88.36;100258.19;5033915;28;20302;-76
2023/07/30 02:41:03;;;;;;;5.57;3.97;;;17.00;99.90;;;16.71;89.03;100267.94;5033817;28;20197;-76
2023/07/30 02:43:35;;;;;;;5.33;3.73;;;17.10;99.90;;;16.77;87.81;100265.44;5032633;28;20667;-76
2023/07/30 02:46:07;;;;;;;4.80;4.30;;;17.10;99.90;;;16.70;88.56;100252.78;5033591;28;20314;-75
2023/07/30 02:48:39;;;;;;;5.33;4.33;;;17.10;99.90;;;16.72;87.79;100264.19;5033553;28;20238;-75
2023/07/30 02:51:11;;;;;;;6.43;4.37;;;17.10;99.90;;;16.68;88.78;100262.13;5033353;28;20633;-75
2023/07/30 02:53:45;;;;;;;6.03;3.90;;;17.00;99.90;;;16.68;88.10;100268.34;5033313;28;20278;-75
2023/07/30 02:56:17;;;;;;;4.90;3.90;;;17.00;99.90;;;16.66;87.75;100275.88;5033789;28;20258;-75
2023/07/30 02:58:49;;;;;;;4.30;3.90;;;17.00;99.90;;;16.59;88.38;100275.03;5033574;28;20246;-75
2023/07/30 03:01:21;;;;;;;5.43;3.67;;;16.90;99.90;;;16.57;88.10;100277.13;5033525;28;20294;-75
2023/07/30 03:03:53;;;;;;;5.00;3.40;;;16.90;99.90;;;16.60;87.95;100282.13;5033559;28;20210;-76
2023/07/30 03:06:25;;;;;;;6.23;3.40;;;17.00;99.90;;;16.59;87.41;100280.44;5033478;28;20226;-76
2023/07/30 03:08:58;;;;;;;5.33;3.70;;;16.90;99.90;;;16.52;88.29;100279.59;5033199;28;20286;-76
2023/07/30 03:11:30;;;;;;;4.27;3.87;;;16.80;99.90;;;16.55;87.81;100278.34;5033455;28;20274;-75
2023/07/30 03:14:02;;;;;;;4.60;3.50;;;16.80;99.90;;;16.47;87.49;100282.06;5033503;28;20747;-74
2023/07/30 03:16:34;;;;;;;4.60;3.73;;;16.80;99.90;;;16.42;88.02;100276.50;5034040;28;20226;-75
2023/07/30 03:19:06;;;;;;;5.20;3.40;;;16.80;99.90;;;16.42;87.49;100281.06;5034284;28;20215;-74
2023/07/30 03:21:38;;;;;;;5.10;3.43;;;16.80;99.90;;;16.45;87.40;100277.94;5033885;28;20704;-74
2023/07/30 03:24:12;;;;;;;6.03;3.43;;;16.80;99.90;;;16.41;86.25;100277.50;5033856;28;20194;-73
2023/07/30 03:26:44;;;;;;;3.43;3.13;;;16.80;99.90;;;16.38;85.71;100277.09;5033508;28;20730;-74
2023/07/30 03:29:18;;;;;;;6.63;3.10;;;16.70;99.90;;;16.44;85.26;100282.50;5034011;28;20221;-75
2023/07/30 03:31:50;;;;;;;6.63;3.03;;;16.80;99.90;;;16.38;85.05;100280.63;5032968;28;20274;-75
2023/07/30 03:34:22;;;;;;;4.27;3.13;;;16.80;99.90;;;16.39;84.67;100286.88;5033270;28;20281;-75
2023/07/30 03:36:54;;;;;;;8.63;3.30;;;16.80;99.90;;;16.38;84.44;100290.63;5032950;28;20641;-75
2023/07/30 03:39:27;;;;;;;5.97;2.97;;;16.70;99.90;;;16.37;84.16;100287.06;5032780;28;20642;-75
2023/07/30 03:41:59;;;;;;;4.57;3.07;;;16.70;99.90;;;16.35;83.86;100288.34;5033162;28;20199;-75
2023/07/30 03:44:31;;;;;;;4.90;3.00;;;16.70;99.90;;;16.40;83.78;100294.78;5032665;28;20246;-75
2023/07/30 03:47:03;;;;;;;5.43;3.00;;;16.70;99.90;;;16.38;83.92;100288.75;5032749;28;20290;-75
2023/07/30 03:49:35;;;;;;;7.03;3.20;;;16.70;99.90;;;16.34;82.80;100298.31;5033082;28;20273;-75
2023/07/30 03:52:07;;;;;;;4.50;3.10;;;16.70;99.90;;;16.36;83.18;100298.09;5033171;28;20651;-75
2023/07/30 03:54:40;;;;;;;5.57;3.10;;;16.60;99.90;;;16.35;83.50;100294.56;5033503;28;20282;-75
2023/07/30 03:57:12;;;;;;;4.83;2.80;;;16.70;99.90;;;16.31;83.37;100301.41;5036832;28;20285;-75
2023/07/30 03:59:44;;;;;;;5.57;3.03;;;16.70;99.90;;;16.29;82.20;100306.22;5036406;28;20692;-75
2023/07/30 04:02:16;;;;;;;6.23;2.93;;;16.70;99.90;;;16.27;82.13;100308.28;5036406;28;20736;-75
2023/07/30 04:04:50;;;;;;;8.10;3.17;;;16.60;99.90;;;16.20;82.91;100313.69;5036516;28;20747;-75
2023/07/30 04:07:22;;;;;;;6.43;3.23;;;16.60;99.90;;;16.19;82.66;100317.44;5036649;28;20195;-75
2023/07/30 04:09:55;;;;;;;7.77;3.03;;;16.60;99.90;;;16.17;82.54;100316.78;5036320;28;20711;-75
2023/07/30 04:12:27;;;;;;;4.70;3.00;;;16.50;99.90;;;16.19;81.93;100316.59;5036551;28;20241;-75
2023/07/30 04:14:59;;;;;;;4.57;2.93;;;16.60;99.90;;;16.14;82.94;100316.38;5036427;28;20313;-75
2023/07/30 04:17:31;;;;;;;8.27;3.47;;;16.50;99.90;;;16.08;83.07;100315.34;5036454;28;20274;-76
2023/07/30 04:20:04;;;;;;;4.93;3.43;;;16.50;99.90;;;16.01;83.73;100319.06;5036364;28;20230;-75
2023/07/30 04:22:35;;;;;;;7.57;3.43;;;16.40;99.90;;;16.00;83.86;100317.41;5036284;28;20222;-75
2023/07/30 04:25:11;;;;;;;6.17;3.43;;;16.40;99.90;;;16.03;83.40;100319.69;5036209;28;20318;-76
2023/07/30 04:27:43;;;;;;;7.73;3.60;;;16.40;99.90;;;16.05;83.91;100314.94;5036267;28;20248;-76
2023/07/30 04:30:16;;;;;;;7.33;3.20;;;16.40;99.90;;;15.97;83.62;100323.22;5036797;28;20274;-76
2023/07/30 04:32:48;;;;;;;8.10;3.47;;;16.30;99.90;;;15.98;83.46;100319.47;5035857;28;20227;-76
2023/07/30 04:35:19;;;;;;;10.47;3.40;;;16.40;99.90;;;16.00;84.24;100318.22;5036188;28;20231;-76
2023/07/30 04:37:51;;;;;;;8.03;4.00;;;16.40;99.90;;;16.01;83.51;100319.91;5036131;28;20195;-75
2023/07/30 04:40:25;;;;;;;6.77;3.37;;;16.40;99.90;;;16.03;84.55;100325.06;5035701;28;20321;-75
2023/07/30 04:42:56;;;;;;;7.53;3.40;;;16.40;99.90;;;16.07;83.57;100323.63;5035815;28;20284;-75
2023/07/30 04:45:28;;;;;;;7.97;3.57;;;16.50;99.90;;;16.04;83.70;100334.84;5035818;28;20330;-76
2023/07/30 04:48:01;;;;;;;6.43;3.57;;;16.40;99.90;;;16.03;84.09;100325.91;5035858;28;20195;-76
2023/07/30 04:50:33;;;;;;;11.23;3.87;;;16.40;99.90;;;16.06;84.18;100322.00;5035952;28;20535;-75
2023/07/30 04:53:05;;;;;;;8.97;3.97;;;16.50;99.90;;;16.07;83.70;100329.03;5036031;28;20286;-75
2023/07/30 04:55:38;;;;;;;9.80;4.07;;;16.50;99.90;;;16.09;84.39;100330.53;5035391;28;20651;-75
2023/07/30 04:58:10;;;;;;;8.67;3.70;;;16.50;99.90;;;16.07;84.76;100329.03;5035738;28;20226;-75
2023/07/30 05:00:42;;;;;;;7.60;3.77;;;16.50;99.90;;;16.09;84.66;100326.97;5035564;28;20211;-75
2023/07/30 05:03:13;;;;;;;8.00;3.60;;;16.50;99.90;;;16.06;84.86;100325.50;5035257;28;20753;-76
2023/07/30 05:05:45;;;;;;;7.13;3.50;;;16.50;99.90;;;16.11;84.98;100327.59;5035544;28;20265;-76
2023/07/30 05:08:17;;;;;;;3.93;2.90;;;16.50;99.90;;;16.09;84.59;100333.22;5035203;28;20265;-75
2023/07/30 05:10:50;;;;;;;6.33;3.50;;;16.50;99.90;;;16.09;84.62;100332.38;5035225;28;20622;-75
2023/07/30 05:13:22;;;;;;;5.90;3.43;;;16.50;99.90;;;16.12;84.86;100323.88;5035414;28;20191;-75
2023/07/30 05:15:54;;;;;;;6.80;3.70;;;16.50;99.90;;;16.14;84.58;100324.47;5035335;28;20324;-75
2023/07/30 05:18:26;;;;;;;6.47;3.60;;;16.60;99.90;;;16.18;85.12;100325.72;5035363;28;20191;-76
2023/07/30 05:20:58;;;;;;;8.27;4.20;;;16.60;99.90;;;16.20;85.49;100326.34;5035131;28;20214;-76
2023/07/30 05:23:30;;;;;;;10.90;3.80;;;16.60;99.90;;;16.24;85.09;100333.00;5035232;28;20245;-76
2023/07/30 05:26:03;;;;;;;10.50;4.63;;;16.60;99.90;;;16.24;85.51;100319.50;5035094;28;20309;-76
2023/07/30 05:28:35;;;;;;;8.40;4.27;;;16.70;99.90;;;16.29;85.61;100327.81;5035105;28;20266;-76
2023/07/30 05:31:07;;;;;;;7.17;4.40;;;16.70;99.90;;;16.29;86.21;100325.13;5035114;28;20198;-76
2023/07/30 05:33:38;;;;;;;7.63;4.80;;;16.70;99.90;;;16.31;86.33;100323.03;5035037;28;20223;-76
2023/07/30 05:36:10;;;;;;;8.63;5.00;;;16.70;99.90;;;16.32;85.73;100332.81;5034929;28;20258;-75
2023/07/30 05:38:42;;;;;;;9.30;5.13;;;16.80;99.90;;;16.35;86.11;100335.09;5034816;28;20642;-75
2023/07/30 05:41:16;;;;;;;9.00;5.30;;;16.80;99.90;;;16.37;85.70;100330.31;5034452;28;20668;-76
2023/07/30 05:43:47;;;;;;;10.77;5.50;;;16.80;99.90;;;16.41;86.14;100333.41;5034678;28;20242;-76
2023/07/30 05:46:19;;;;;;;6.67;5.23;;;16.80;99.90;;;16.45;86.37;100330.09;5034710;28;20313;-76
2023/07/30 05:48:51;;;;;;;10.57;6.00;;;16.90;99.90;;;16.48;86.17;100316.16;5034883;28;20246;-76
2023/07/30 05:51:23;;;;;;;11.57;6.20;;;16.90;99.90;;;16.51;86.82;100323.84;5034562;28;20687;-77
2023/07/30 05:53:55;;;;;;;8.33;5.70;;;16.90;99.90;;;16.53;85.73;100313.69;5034630;28;20249;-75
2023/07/30 05:56:29;;;;;;;11.63;6.37;;;17.00;99.90;;;16.57;86.54;100320.38;5034180;28;20321;-75
2023/07/30 05:59:01;;;;;;;12.53;7.13;;;17.00;99.90;;;16.59;85.37;100326.41;5034629;28;20222;-76
2023/07/30 06:01:33;;;;;;;11.67;7.47;;;17.10;99.90;;;16.64;85.98;100326.56;5034186;28;20645;-76
2023/07/30 06:04:04;;;;;;;13.23;7.27;;;17.10;99.90;;;16.66;85.39;100329.09;5034305;28;20673;-76
2023/07/30 06:06:36;;;;;;;13.03;8.00;;;17.10;99.90;;;16.69;85.46;100324.09;5034668;28;20280;-76
2023/07/30 06:09:08;;;;;;;13.43;8.30;;;17.20;99.90;;;16.77;84.88;100325.75;5054981;28;20195;-74
2023/07/30 06:11:41;;;;;;;9.47;8.17;;;17.20;99.90;;;16.81;84.34;100331.56;5054466;28;20187;-75
2023/07/30 06:14:13;;;;;;;12.37;7.53;;;17.30;99.90;;;16.83;82.48;100326.78;5039144;28;20226;-74
2023/07/30 06:16:45;;;;;;;10.80;7.87;;;17.30;99.90;;;16.88;83.49;100337.81;5035623;28;20712;-75
2023/07/30 06:19:17;;;;;;;11.50;7.83;;;17.40;99.90;;;16.90;82.21;100335.69;5034338;28;20195;-74
2023/07/30 06:21:49;;;;;;;12.00;7.67;;;17.40;99.90;;;16.95;82.58;100333.22;5035315;28;20210;-75
2023/07/30 06:24:21;;;;;;;10.97;7.70;;;17.40;99.90;;;16.94;82.26;100336.94;5034114;28;20286;-76
2023/07/30 06:26:54;;;;;;;10.57;7.40;;;17.40;99.90;;;16.98;81.76;100332.78;5033969;28;20249;-76
2023/07/30 06:29:26;;;;;;;12.10;7.57;;;17.40;99.90;;;17.04;81.78;100331.94;5033976;28;20245;-75
2023/07/30 06:31:58;;;;;;;11.63;7.50;;;17.50;99.90;;;17.05;80.70;100333.59;5033971;28;20191;-75
2023/07/30 06:34:30;;;;;;;12.60;7.23;;;17.50;99.90;;;17.06;81.18;100336.06;5034221;28;20285;-76
2023/07/30 06:37:02;;;;;;;11.70;6.73;;;17.50;99.90;;;17.08;80.90;100333.19;5033897;28;20278;-76
2023/07/30 06:39:34;;;;;;;13.07;6.90;;;17.50;99.90;;;17.11;81.06;100339.00;5033844;28;20201;-76
2023/07/30 06:42:09;;;;;;;10.97;6.87;;;17.60;99.90;;;17.11;80.63;100339.00;5033420;28;20736;-76
2023/07/30 06:44:41;;;;;;;9.83;7.23;;;17.60;99.90;;;17.13;79.40;100336.06;5033388;28;20186;-76
2023/07/30 06:47:13;;;;;;;10.77;6.40;;;17.60;99.90;;;17.19;80.15;100336.03;5033719;28;20252;-75
2023/07/30 06:49:45;;;;;;;11.43;6.03;;;17.60;99.90;;;17.26;79.77;100330.59;5033399;28;20206;-75
2023/07/30 06:52:16;;;;;;;9.70;5.67;;;17.70;99.90;;;17.29;78.64;100340.19;5033922;28;20188;-75
2023/07/30 06:54:48;;;;;;;10.13;5.73;;;17.70;99.90;;;17.30;78.09;100333.72;5033872;28;20273;-76
2023/07/30 06:57:21;;;;;;;12.30;5.63;;;17.80;99.90;;;17.35;77.31;100329.34;5033649;28;20218;-76
2023/07/30 06:59:53;;;;;;;8.83;5.20;;;17.80;99.90;;;17.41;75.49;100355.53;5033286;28;20540;-76
2023/07/30 07:02:25;;;;;;;10.47;4.50;;;17.90;99.90;;;17.52;73.95;100346.75;5033474;28;20305;-76
2023/07/30 07:04:59;;;;;;;6.80;4.30;;;18.00;99.90;;;17.60;73.20;100349.22;5033087;28;20265;-76
2023/07/30 07:07:31;;;;;;;7.97;4.83;;;18.00;99.90;;;17.62;75.36;100341.75;5033482;28;20194;-64
2023/07/30 07:10:03;;;;;;;7.97;4.60;;;18.10;99.90;;;17.64;74.47;100355.88;5033398;28;20199;-74
2023/07/30 07:12:36;;;;;;;6.43;4.13;;;18.10;99.90;;;17.81;73.54;100352.69;5033373;28;20279;-74
2023/07/30 07:15:10;;;;;;;9.03;4.03;;;18.30;99.90;;;17.76;71.33;100347.09;5033300;28;20252;-74
2023/07/30 07:17:42;;;;;;;7.30;3.50;;;18.20;99.90;;;17.83;71.56;100347.88;5033341;28;20273;-74
2023/07/30 07:20:14;;;;;;;5.77;3.60;;;18.30;99.90;;;17.91;69.46;100350.34;5033013;28;20241;-74
2023/07/30 07:22:46;;;;;;;10.03;3.60;;;18.40;99.90;;;18.02;71.40;100346.91;5033185;28;20215;-74
2023/07/30 07:25:19;;;;;;;5.80;3.10;;;18.50;99.90;;;18.02;70.21;100353.16;5033616;28;20230;-73
2023/07/30 07:27:52;;;;;;;5.07;3.30;;;18.60;99.90;;;18.15;68.24;100363.13;5033257;28;20252;-73
2023/07/30 07:30:24;;;;;;;3.50;2.60;;;18.70;99.90;;;18.19;66.89;100358.88;5035051;28;20353;-74
2023/07/30 07:32:57;;;;;;;5.73;2.87;;;18.70;99.90;;;18.16;65.26;100356.63;5037203;28;20202;-74
2023/07/30 07:35:29;;;;;;;4.23;2.77;;;18.60;99.90;;;18.23;66.43;100354.69;5037061;28;20237;-73
2023/07/30 07:38:01;;;;;;;5.77;2.57;;;18.70;99.90;;;18.20;66.98;100366.81;5037672;28;20199;-74
2023/07/30 07:40:36;;;;;;;5.73;2.70;;;18.70;99.90;;;18.19;65.67;100369.72;5037169;28;20253;-74
2023/07/30 07:43:09;;;;;;;4.33;2.50;;;18.70;99.90;;;18.23;66.00;100362.84;5037369;28;20293;-74
2023/07/30 07:45:41;;;;;;;6.17;2.50;;;18.70;99.90;;;18.27;65.54;100361.34;5036919;28;20309;-74
2023/07/30 07:48:13;;;;;;;5.40;2.97;;;18.70;99.90;;;18.28;67.41;100363.03;5036630;28;20291;-74
2023/07/30 07:50:45;;;;;;;5.43;3.00;;;18.80;99.90;;;18.35;67.65;100361.09;5036941;28;20229;-74
2023/07/30 07:53:17;;;;;;;4.43;2.57;;;18.80;99.90;;;18.38;66.89;100359.81;5036560;28;20693;-75
2023/07/30 07:55:49;;;;;;;5.70;2.23;;;18.90;99.90;;;18.34;67.99;100362.13;5036694;28;20234;-74
2023/07/30 07:58:22;;;;;;;5.70;2.60;;;18.80;99.90;;;18.40;66.17;100358.53;5036805;28;20293;-74
2023/07/30 08:00:57;;;;;;;6.37;2.50;;;18.90;99.90;;;18.52;65.11;100359.53;5036888;28;20191;-74
2023/07/30 08:03:29;;;;;;;6.20;2.70;;;19.00;99.90;;;18.60;65.93;100359.22;5036624;28;20191;-73
2023/07/30 08:06:02;;;;;;;4.40;2.40;;;19.10;99.90;;;18.69;64.22;100366.06;5036254;28;20713;-73
2023/07/30 08:08:34;;;;;;;7.37;2.60;;;19.10;99.20;;;18.73;62.50;100367.25;5036804;28;20295;-73
2023/07/30 08:11:10;;;;;;;5.80;2.80;;;19.20;98.30;;;18.83;63.18;100361.34;5036163;28;20267;-73
2023/07/30 08:13:43;;;;;;;4.10;2.37;;;19.30;99.20;;;18.86;62.80;100365.47;5036167;28;20711;-74
2023/07/30 08:16:15;;;;;;;7.30;2.30;;;19.30;98.40;;;18.87;62.54;100353.59;5036388;28;20322;-74
2023/07/30 08:18:47;;;;;;;5.43;2.73;;;19.30;98.10;;;18.88;61.72;100357.94;5036277;28;20645;-74
2023/07/30 08:21:20;;;;;;;6.00;2.23;;;19.30;97.80;;;18.93;61.61;100360.81;5036456;28;20191;-74
2023/07/30 08:23:52;;;;;;;5.13;2.70;;;19.40;98.20;;;18.98;61.97;100363.69;5036517;28;20191;-74
2023/07/30 08:26:24;;;;;;;8.60;2.70;;;19.40;97.90;;;19.05;62.37;100364.44;5036203;28;20313;-74
2023/07/30 08:28:57;;;;;;;3.80;2.37;;;19.50;98.20;;;19.09;61.35;100360.22;5036072;28;20239;-74
2023/07/30 08:31:29;;;;;;;7.40;2.20;;;19.50;97.50;;;19.12;61.18;100360.63;5036140;28;20215;-75
2023/07/30 08:34:02;;;;;;;5.37;2.40;;;19.60;97.60;;;19.16;60.63;100361.84;5036267;28;20206;-75
2023/07/30 08:36:34;;;;;;;7.27;2.63;;;19.60;97.10;;;19.25;60.64;100367.78;5036014;28;20254;-74
2023/07/30 08:39:07;;;;;;;4.63;2.57;;;19.70;96.90;;;19.25;60.77;100359.63;5036025;28;20187;-75
2023/07/30 08:41:39;;;;;;;4.50;2.30;;;19.70;97.00;;;19.25;60.54;100363.19;5034864;28;20211;-74
2023/07/30 08:44:15;;;;;;;4.07;2.20;;;19.70;97.00;;;19.32;61.64;100356.84;5035497;28;20225;-74
2023/07/30 08:46:47;;;;;;;5.87;2.60;;;19.70;97.30;;;19.31;61.70;100347.91;5035503;28;20309;-74
2023/07/30 08:49:19;;;;;;;6.77;2.37;;;19.80;97.40;;;19.33;60.75;100337.63;5035846;28;20269;-74
2023/07/30 08:51:56;;;;;;;5.07;2.70;;;19.80;96.70;;;19.41;59.79;100342.78;5035915;28;20218;-75
2023/07/30 08:54:30;;;;;;;5.73;2.83;;;19.80;96.30;;;19.48;59.94;100348.97;5035677;28;20191;-75
2023/07/30 08:57:03;;;;;;;5.00;2.60;;;20.00;96.30;;;19.47;59.90;100341.88;5035266;28;20672;-74
2023/07/30 08:59:42;;;;;;;6.40;2.77;;;19.90;96.30;;;19.45;60.74;100348.59;5035712;28;20252;-74
2023/07/30 09:02:31;;;;;;;6.30;3.43;;;19.90;96.80;;;19.44;61.92;100339.63;5035563;28;20211;-74
2023/07/30 09:05:06;;;;;;;7.73;2.80;;;19.90;97.60;;;19.64;60.92;100352.94;5035736;28;20237;-74
2023/07/30 09:07:39;;;;;;;6.80;2.53;;;20.10;97.00;;;19.71;61.33;100348.25;5035608;28;20195;-74
2023/07/30 09:10:12;;;;;;;6.00;2.70;;;20.10;97.00;;;19.74;58.98;100340.47;5035501;28;20286;-74
2023/07/30 09:12:44;;;;;;;9.17;2.90;;;20.20;95.90;;;19.79;59.69;100349.81;5035825;28;20214;-74
2023/07/30 09:15:29;;;;;;;4.93;2.77;;;20.20;96.40;;;19.83;59.32;100348.31;5034993;28;20594;-74
2023/07/30 09:18:01;;;;;;;6.77;3.00;;;20.30;95.70;;;19.91;58.89;100347.97;5035274;28;20194;-74
2023/07/30 09:20:42;;;;;;;7.40;3.00;;;20.30;95.80;;;20.03;59.61;100346.16;5035281;28;20187;-75
2023/07/30 09:23:15;;;;;;;6.80;2.93;;;20.40;96.30;;;20.00;58.83;100352.03;5034849;28;20707;-75
2023/07/30 09:25:50;;;;;;;7.67;3.00;;;20.40;95.80;;;20.07;58.50;100359.00;5035334;28;20241;-75
2023/07/30 09:28:31;;;;;;;4.77;2.67;;;20.50;95.60;;;20.19;58.98;100350.91;5034833;28;20675;-74
2023/07/30 09:31:08;;;;;;;8.30;4.90;;;20.60;95.50;;;20.23;58.47;100360.25;5035096;28;20201;-75
2023/07/30 09:33:53;;;;;;;6.30;3.90;;;20.70;95.30;;;20.28;59.36;100354.97;5034718;28;20700;-75
2023/07/30 09:36:25;;;;;;;6.37;3.70;;;20.70;96.10;;;20.34;59.60;100359.50;5034893;28;20227;-75
2023/07/30 09:38:57;;;;;;;4.47;2.90;;;20.80;95.90;;;20.35;58.62;100366.56;5034936;28;20221;-74
2023/07/30 09:41:29;;;;;;;7.97;3.30;;;20.80;95.50;;;20.32;59.70;100374.38;5034791;28;20656;-75
2023/07/30 09:44:03;;;;;;;8.77;3.73;;;20.70;96.10;;;20.30;59.41;100374.63;5034483;28;20787;-75
2023/07/30 09:46:45;;;;;;;12.50;7.40;;;20.70;95.70;;;20.26;61.17;100376.09;5034989;28;20313;-75
2023/07/30 09:49:17;;;;;;;7.00;3.97;;;20.60;96.60;;;20.25;60.08;100378.00;5034705;28;20191;-75
2023/07/30 09:51:51;;;;;;;6.87;4.30;;;20.60;96.10;;;20.23;60.42;100385.56;5034641;28;20195;-75
2023/07/30 09:54:23;;;;;;;8.47;3.80;;;20.60;96.30;;;20.26;59.49;100381.53;5034461;28;20265;-74
2023/07/30 09:56:55;;;;;;;6.17;4.10;;;20.60;96.00;;;20.30;59.87;100396.38;5034764;28;20191;-75
2023/07/30 09:59:27;;;;;;;9.03;5.20;;;20.70;95.80;;;20.30;60.11;100395.53;5034206;28;20191;-75
2023/07/30 10:02:01;;;;;;;7.70;4.27;;;20.70;96.00;;;20.28;59.05;100395.75;5034334;28;20281;-75
2023/07/30 10:04:40;;;;;;;12.47;3.67;;;20.60;95.30;;;20.25;58.03;100404.34;5034109;28;20256;-74
2023/07/30 10:07:20;;;;;;;9.80;3.90;;;20.60;94.80;;;20.20;59.28;100407.78;5034044;28;20544;-75
2023/07/30 10:09:56;;;;;;;7.97;3.40;;;20.60;95.50;;;20.22;59.22;100415.69;5034280;28;20290;-76
2023/07/30 10:12:34;;;;;;;6.03;4.00;;;20.60;95.50;;;20.20;59.38;100413.22;5034269;28;20215;-76
2023/07/30 10:15:07;;;;;;;6.50;3.60;;;20.60;96.00;;;20.17;59.30;100412.84;5033835;28;20728;-75
2023/07/30 10:17:41;;;;;;;9.20;3.70;;;20.50;95.50;;;20.04;58.89;100413.84;5033906;28;20645;-75
2023/07/30 10:20:29;;;;;;;8.30;4.30;;;20.40;95.60;;;20.08;59.95;100409.59;5033794;28;20187;-75
2023/07/30 10:23:02;;;;;;;6.47;3.57;;;20.40;96.10;;;20.07;59.60;100412.53;5033748;28;20218;-75
2023/07/30 10:25:44;;;;;;;9.87;3.63;;;20.40;95.60;;;19.98;59.73;100412.03;5033942;28;20230;-75
2023/07/30 10:28:32;;;;;;;9.53;5.47;;;20.30;95.70;;;19.99;60.65;100413.72;5033772;28;20660;-75
2023/07/30 10:31:09;;;;;;;6.20;3.50;;;20.30;96.20;;;19.96;60.37;100429.63;5033942;28;20203;-75
2023/07/30 10:33:55;;;;;;;6.43;4.33;;;20.30;96.10;;;19.93;60.31;100424.66;5033824;28;20186;-76
2023/07/30 10:36:37;;;;;;;9.40;4.47;;;20.20;96.00;;;19.92;60.42;100428.44;5034594;28;20336;-76